Cross City, FL

9:14 PM EST on November 22, 2019 (GMT -0500)
Cross City

Weather History for KCTY - October, 2019

Change the Weather History Date:

Tuesday, October 22, 2019

  Actual Average Record
Temperature  
Mean Temperature 74 °F 69 °F  
Max Temperature 83 °F 82 °F 90 °F (2006)
Min Temperature 65 °F 56 °F 36 °F (2011)
Degree Days  
Heating Degree Days 0    
Month to date heating degree days 2  
Since 1 July heating degree days 2  
Cooling Degree Days 9    
Month to date cooling degree days 234  
Year to date cooling degree days 2991  
Growing Degree Days 26 (Base 50)    
Moisture  
Dew Point 72 °F    
Average Humidity 89    
Maximum Humidity 100    
Minimum Humidity 73    
Precipitation  
Precipitation 0.00 in 0.09 in 0.96 in (2013)
Month to date precipitation 1.95 2.61  
Year to date precipitation 49.42 42.44  
Sea Level Pressure  
Sea Level Pressure 29.98 in    
Wind  
Wind Speed 7 mph (SW)    
Max Wind Speed 8 mph    
Max Gust Speed 29 mph    
Visibility 8 miles    
Events Fog , Rain    
T = Trace of Precipitation, MM = Missing Value Source: NWS Daily Summary

Daily Weather History Graph

Daily Weather History Graph

Search for Another Location

Airport or City:

Astronomy

Oct. 22, 2019 Rise Set
Actual Time 7:38 AM EDT 6:54 PM EDT
Civil Twilight 7:14 AM EDT 7:19 PM EDT
Nautical Twilight 6:46 AM EDT 7:46 PM EDT
Astronomical Twilight 6:18 AM EDT 8:14 PM EDT
Moon 1:24 AM EDT (10/22) 3:29 PM EDT (10/22)
Length of Visible Light 12h 04m
Length of Day
11h 16m
Last Quarter, 37% of the Moon is Illuminated
Oct 22
Last Quarter
Oct 27
New
Nov 4
First Quarter
Nov 12
Full
Nov 19
Last Quarter

Hourly Weather History & Observations

Time (EDT) Temp. Heat Index Dew Point Humidity Pressure Visibility Wind Dir Wind Speed Gust Speed Precip Events Conditions
12:15 AM 73.4 °F - 73.4 °F 100% 29.99 in 7.0 mi South 3.5 mph - N/A   Mist
12:35 AM 73.4 °F - 73.4 °F 100% 29.99 in 7.0 mi South 3.5 mph - N/A   Mist
12:55 AM 73.9 °F - 73.6 °F 99% 29.99 in 5.0 mi South 3.5 mph - N/A   Mist
1:15 AM 74.1 °F - 73.9 °F 99% 29.99 in 4.0 mi South 4.6 mph - 0.01 in   Mist
1:35 AM 74.7 °F - 74.5 °F 99% 29.98 in 3.5 mi South 5.8 mph - 0.01 in   Mist
1:55 AM 74.7 °F - 74.5 °F 99% 29.98 in 4.0 mi South 4.6 mph - 0.01 in   Mist
2:15 AM 74.7 °F - 74.3 °F 99% 29.98 in 5.0 mi South 3.5 mph - N/A   Mist
2:35 AM 74.5 °F - 74.3 °F 99% 29.97 in 4.0 mi SSE 3.5 mph - N/A   Mist
2:55 AM 74.1 °F - 73.8 °F 99% 29.97 in 2.5 mi Calm Calm - N/A   Mist
3:15 AM 73.6 °F - 73.4 °F 99% 29.97 in 0.2 mi Calm Calm - N/A Fog Fog
3:35 AM 72.7 °F - 72.5 °F 99% 29.97 in 0.2 mi Calm Calm - N/A Fog Fog
3:55 AM 73.0 °F - 73.0 °F 100% 29.96 in 0.5 mi Calm Calm - N/A Fog Fog
4:15 AM 73.8 °F - 73.6 °F 99% 29.96 in 4.0 mi South 4.6 mph - N/A   Mist
4:35 AM 74.3 °F - 74.1 °F 99% 29.97 in 7.0 mi WSW 11.5 mph 17.3 mph N/A Rain Light Rain
4:55 AM 73.4 °F - 72.9 °F 98% 29.96 in 10.0 mi SW 6.9 mph - N/A   Unknown
5:15 AM 72.9 °F - 72.3 °F 98% 29.95 in 10.0 mi SSW 4.6 mph - N/A   Unknown
5:35 AM 72.7 °F - 72.3 °F 99% 29.95 in 10.0 mi SSE 5.8 mph - N/A   Unknown
5:55 AM 72.5 °F - 72.1 °F 99% 29.95 in 10.0 mi SSE 5.8 mph - N/A   Unknown
6:15 AM 72.3 °F - 72.0 °F 99% 29.96 in 10.0 mi South 5.8 mph - 0.01 in   Unknown
6:35 AM 72.7 °F - 72.3 °F 99% 29.96 in 10.0 mi South 6.9 mph - 0.01 in   Unknown
6:55 AM 72.7 °F - 72.1 °F 98% 29.96 in 10.0 mi South 5.8 mph - 0.01 in   Unknown
7:15 AM 72.9 °F - 72.3 °F 98% 29.95 in 10.0 mi South 9.2 mph - N/A   Unknown
7:35 AM 73.0 °F - 72.5 °F 98% 29.96 in 10.0 mi South 5.8 mph - N/A   Unknown
7:55 AM 73.0 °F - 72.5 °F 98% 29.96 in 10.0 mi South 5.8 mph - N/A   Unknown
8:15 AM 73.4 °F - 72.9 °F 98% 29.96 in 10.0 mi South 4.6 mph - N/A   Unknown
8:35 AM 73.8 °F - 73.0 °F 98% 29.97 in 10.0 mi South 3.5 mph - N/A   Unknown
8:55 AM 74.3 °F - 73.4 °F 97% 29.98 in 10.0 mi South 4.6 mph - N/A   Unknown
9:15 AM 75.2 °F - 74.3 °F 97% 29.98 in 10.0 mi South 4.6 mph - N/A   Unknown
9:35 AM 77.0 °F - 75.2 °F 94% 29.99 in 10.0 mi South 4.6 mph - N/A   Unknown
9:55 AM 80.1 °F 85.5 °F 76.3 °F 88% 29.99 in 10.0 mi South 8.1 mph - N/A   Unknown
10:15 AM 81.9 °F 88.9 °F 75.7 °F 82% 29.99 in 10.0 mi SSW 8.1 mph - N/A   Unknown
10:35 AM 84.0 °F 94.0 °F 77.4 °F 80% 29.98 in 10.0 mi SSW 10.4 mph - N/A   Unknown
10:55 AM 84.9 °F 95.3 °F 77.2 °F 77% 29.98 in 10.0 mi SSW 10.4 mph - N/A   Unknown
11:15 AM 83.3 °F 92.1 °F 76.5 °F 80% 29.99 in 10.0 mi SSW 11.5 mph - N/A   Unknown
11:35 AM 82.8 °F 91.3 °F 76.6 °F 82% 29.99 in 10.0 mi SW 10.4 mph - N/A   Unknown
11:55 AM 84.2 °F 94.9 °F 77.7 °F 81% 29.98 in 10.0 mi SW 15.0 mph 20.7 mph N/A   Unknown
12:15 PM 84.0 °F 93.7 °F 76.8 °F 79% 29.97 in 10.0 mi SW 12.7 mph 18.4 mph N/A   Unknown
12:35 PM 83.5 °F 92.6 °F 76.6 °F 80% 29.97 in 10.0 mi SSW 12.7 mph 24.2 mph N/A   Unknown
12:55 PM 84.4 °F 94.2 °F 76.8 °F 78% 29.96 in 10.0 mi SW 12.7 mph 21.9 mph N/A   Unknown
1:15 PM 84.4 °F 94.6 °F 77.2 °F 79% 29.95 in 10.0 mi SSW 12.7 mph 24.2 mph N/A   Unknown
1:35 PM 84.6 °F 93.5 °F 75.7 °F 75% 29.96 in 10.0 mi West 19.6 mph 28.8 mph N/A   Unknown
1:55 PM 75.7 °F - 74.1 °F 95% 29.97 in 2.5 mi WNW 12.7 mph 23.0 mph 0.12 in Rain Heavy Rain
3:00 PM - - - N/A% 29.95 in - WNW 8.1 mph - N/A   Unknown
3:15 PM 81.9 °F 88.5 °F 75.0 °F 80% 29.95 in 10.0 mi WNW 9.2 mph - N/A   Unknown
3:35 PM 80.1 °F 84.5 °F 73.6 °F 81% 29.95 in 10.0 mi WNW 10.4 mph - N/A   Unknown
3:55 PM 82.4 °F 89.0 °F 74.5 °F 77% 29.94 in 10.0 mi WNW 8.1 mph - N/A   Unknown
4:15 PM 81.3 °F 86.5 °F 73.4 °F 77% 29.94 in 10.0 mi West 8.1 mph - N/A   Unknown
4:35 PM 81.3 °F 86.3 °F 73.2 °F 76% 29.94 in 10.0 mi West 8.1 mph - N/A   Unknown
4:55 PM 81.9 °F 87.0 °F 72.7 °F 74% 29.94 in 10.0 mi WNW 6.9 mph - N/A   Unknown
5:15 PM 82.0 °F 87.4 °F 73.0 °F 74% 29.94 in 10.0 mi NW 5.8 mph - N/A   Unknown
5:55 PM 80.8 °F 85.6 °F 73.2 °F 78% 29.95 in 10.0 mi West 4.6 mph - N/A   Unknown
6:15 PM 81.0 °F 86.0 °F 73.4 °F 78% 29.95 in 10.0 mi WSW 5.8 mph - N/A   Unknown
6:35 PM 79.3 °F - 73.9 °F 83% 29.96 in 10.0 mi WSW 4.6 mph - N/A   Unknown
6:55 PM 78.1 °F - 74.1 °F 88% 29.96 in 10.0 mi WSW 4.6 mph - N/A   Unknown
7:15 PM 77.0 °F - 73.4 °F 89% 29.97 in 10.0 mi West 6.9 mph - N/A   Unknown
7:35 PM 75.9 °F - 72.7 °F 90% 29.98 in 10.0 mi West 8.1 mph - N/A   Unknown
7:55 PM 75.0 °F - 72.1 °F 91% 29.99 in 10.0 mi West 5.8 mph - N/A   Unknown
8:15 PM 74.1 °F - 71.8 °F 92% 30.00 in - WNW 4.6 mph - N/A   Unknown
8:35 PM 73.8 °F - 71.1 °F 91% 30.01 in 10.0 mi WNW 9.2 mph - N/A   Unknown
8:55 PM 73.0 °F - 69.3 °F 88% 30.02 in 10.0 mi NW 5.8 mph - N/A   Unknown
9:15 PM 72.3 °F - 67.8 °F 86% 30.02 in 10.0 mi NW 5.8 mph - N/A   Unknown
9:35 PM 71.4 °F - 65.5 °F 81% 30.03 in 10.0 mi NW 6.9 mph - N/A   Unknown
9:55 PM 70.5 °F - 63.1 °F 77% 30.04 in 10.0 mi NW 8.1 mph - N/A   Unknown
10:15 PM 69.6 °F - 61.9 °F 76% 30.04 in 10.0 mi NW 5.8 mph - N/A   Unknown
10:35 PM 68.7 °F - 60.8 °F 76% 30.05 in 10.0 mi NW 6.9 mph - N/A   Unknown
10:55 PM 68.0 °F - 59.0 °F 73% 30.05 in 10.0 mi NW 6.9 mph - N/A   Unknown
11:15 PM 67.3 °F - 58.8 °F 74% 30.06 in 10.0 mi NW 5.8 mph - N/A   Unknown
11:35 PM 66.0 °F - 59.5 °F 80% 30.06 in 10.0 mi NW 6.9 mph - N/A   Unknown
11:55 PM 65.7 °F - 59.0 °F 79% 30.06 in 10.0 mi NW 6.9 mph - N/A   Unknown